KCEW/CEW METAR and TAF weather

Enter ICAO airport designator
Station Type Date Time Source
KCEW METAR 2021/03/08 02:53 UTC NOAA

KCEW 080253Z AUTO 00000KT 10SM CLR 06/02 A3041 RMK AO2 SLP298 T00560017 51014


Station Type Date Time Source
KCEW Decoded METAR 2021/03/08 02:53 UTC NOAA

CRESTVIEW SIKES AIRPORT, FL, United States (KCEW) 30-46N 086-31W 55M
Mar 07, 2021 - 09:53 PM EST / 2021.03.08 0253 UTC
Wind: Calm:0
Visibility: 10 mile(s):0
Sky conditions: clear
Temperature: 42.1 F (5.6 C)
Dew Point: 35.1 F (1.7 C)
Relative Humidity: 75%
Pressure (altimeter): 30.41 in. Hg (1029 hPa)
Pressure tendency: 0.04 inches (1.4 hPa) higher than three hours ago
ob: KCEW 080253Z AUTO 00000KT 10SM CLR 06/02 A3041 RMK AO2 SLP298 T00560017 51014
cycle: 3

Station Type Date Time Source
KCEW TAF UTC NOAA

Error!

Example: see airport list